METAR AND TAF INFORMATION
METAR FOR KNY0
KNY0 232115Z AUTO 22003KT 10SM CLR 26/16 A3006 RMK AO2 T02560164
KNY0 232055Z AUTO 21004KT 10SM SCT100 26/17 A3007 RMK AO2 T02580171
KNY0 232035Z AUTO 15004KT 10SM SCT100 26/17 A3007 RMK AO2 T02600173
KNY0 232015Z AUTO 17003KT 10SM CLR 26/17 A3007 RMK AO2 T02560165
KNY0 231955Z AUTO 20004KT 10SM CLR 25/17 A3007 RMK AO2 T02540174
KNY0 231935Z AUTO 24005KT 10SM CLR 25/18 A3007 RMK AO2 T02520178
KNY0 231915Z AUTO 00000KT 10SM SCT110 24/18 A3007 RMK AO2 T02440177
KNY0 231855Z AUTO 21004KT 10SM SCT065 SCT075 SCT110 25/18 A3007 RMK AO2 T02480179
KNY0 231835Z AUTO 24004KT 10SM SCT031 BKN039 BKN060 24/18 A3007 RMK AO2 T02380182
KNY0 231815Z AUTO 25004KT 10SM SCT022 BKN029 OVC037 23/18 A3008 RMK AO2 T02320178
KNY0 231755Z AUTO 20004KT 10SM BKN023 BKN028 OVC037 23/18 A3008 RMK AO2 T02340175 10244 20181

 AIRPORT MAP

 RUNWAY INFORMATION
Runway 10 Runway length 4000 ft Runway width 75 ft
Runway elevation 865 ft Runway displaced threshold 0 ft Runway heading 89
Runway 28 Runway length 4000 ft Runway width 75 ft
Runway elevation 881 ft Runway displaced threshold 0 ft Runway heading 269

 AIRPORT FREQUENCIES
Type A/D Name ALBANY APP Frequency 118.05 MHZ
Type UNIC Name CTAF/UNICO Frequency 122.7 MHZ

 AIRPORT NEAR NAVIGATION AIDS

-